Time;durP1;ratioP1;P1;durP2;ratioP2;P2;SDS_P1;SDS_P2;PMS_P1;PMS_P2;Temp;Humidity;BMP_temperature;BMP_pressure;BME280_temperature;BME280_humidity;BME280_pressure;Samples;Min_cycle;Max_cycle;Signal;HPM_P1;HPM_P2
2021/09/03 00:02:18;;;;;;;15.02;5.10;;;12.90;99.90;;;;;;5025591;28;20030;-75
2021/09/03 00:04:44;;;;;;;8.85;4.40;;;12.80;99.90;;;;;;5025308;28;20030;-76
2021/09/03 00:07:10;;;;;;;7.95;4.25;;;12.80;99.90;;;;;;5025435;28;20387;-76
2021/09/03 00:09:36;;;;;;;16.65;5.28;;;12.80;99.90;;;;;;5025559;28;20030;-75
2021/09/03 00:12:03;;;;;;;16.30;5.65;;;12.80;99.90;;;;;;5025283;28;20029;-74
2021/09/03 00:14:29;;;;;;;9.32;3.90;;;12.80;99.90;;;;;;5023544;28;20022;-74
2021/09/03 00:16:54;;;;;;;12.15;4.80;;;12.70;99.90;;;;;;5025355;28;20036;-74
2021/09/03 00:19:20;;;;;;;9.73;4.78;;;12.70;99.90;;;;;;5023860;28;20450;-75
2021/09/03 00:21:45;;;;;;;9.52;4.75;;;12.70;99.90;;;;;;5024213;28;20038;-74
2021/09/03 00:24:11;;;;;;;14.07;5.18;;;12.70;99.90;;;;;;5025016;28;20034;-76
2021/09/03 00:26:37;;;;;;;15.38;5.50;;;12.70;99.90;;;;;;5025081;28;20062;-75
2021/09/03 00:29:03;;;;;;;13.75;5.10;;;12.60;99.90;;;;;;5024868;28;20463;-76
2021/09/03 00:31:29;;;;;;;11.75;4.13;;;12.60;99.90;;;;;;5039115;28;20021;-76
2021/09/03 07:12:46;;;;;;;17.70;6.65;;;14.60;99.90;;;;;;4976148;28;20543;-73
2021/09/03 07:15:13;;;;;;;16.05;6.60;;;14.60;99.90;;;;;;4954137;28;20035;-74
2021/09/03 07:17:39;;;;;;;13.20;5.75;;;14.70;99.90;;;;;;4979257;28;20086;-74
2021/09/03 07:20:05;;;;;;;16.95;5.60;;;14.80;99.90;;;;;;4968894;28;20050;-74
2021/09/03 07:22:31;;;;;;;17.60;6.10;;;14.90;99.90;;;;;;4986700;28;20039;-73
2021/09/03 07:24:56;;;;;;;13.98;6.05;;;14.90;99.90;;;;;;4969556;28;20031;-74
2021/09/03 07:27:22;;;;;;;15.02;6.30;;;15.00;99.90;;;;;;4987359;28;20101;-75
2021/09/03 07:29:47;;;;;;;18.27;6.35;;;15.00;99.90;;;;;;4978741;28;20790;-73
2021/09/03 07:32:13;;;;;;;15.50;5.65;;;15.00;99.90;;;;;;4957692;28;20034;-74
2021/09/03 07:34:38;;;;;;;11.98;5.25;;;15.10;99.90;;;;;;4954412;29;20027;-73
2021/09/03 07:37:04;;;;;;;12.93;5.78;;;15.20;99.90;;;;;;4969427;28;20027;-75
2021/09/03 07:39:30;;;;;;;16.92;5.30;;;15.20;99.90;;;;;;4983620;28;20069;-73
2021/09/03 07:41:55;;;;;;;14.65;5.32;;;15.30;99.90;;;;;;4987006;28;20106;-74
2021/09/03 07:44:21;;;;;;;15.32;5.25;;;15.20;99.90;;;;;;4986264;28;20038;-74
2021/09/03 07:46:46;;;;;;;14.63;4.57;;;15.40;99.90;;;;;;4985670;28;20077;-72
2021/09/03 07:49:12;;;;;;;12.43;5.15;;;15.50;99.90;;;;;;4986632;28;20467;-74
2021/09/03 07:51:38;;;;;;;25.27;5.93;;;15.60;99.90;;;;;;4985979;28;20050;-74
2021/09/03 07:54:04;;;;;;;14.38;6.03;;;15.60;99.90;;;;;;4986567;28;20022;-75
2021/09/03 07:56:30;;;;;;;14.82;4.93;;;15.70;99.90;;;;;;4967256;28;20042;-74
2021/09/03 07:58:55;;;;;;;21.17;5.32;;;15.80;99.90;;;;;;4985689;28;20058;-75
2021/09/03 08:01:21;;;;;;;16.95;6.10;;;15.90;99.90;;;;;;4985672;28;20030;-73
2021/09/03 08:03:46;;;;;;;15.07;4.80;;;16.00;99.90;;;;;;4980457;28;20098;-73
2021/09/03 08:06:12;;;;;;;13.65;5.25;;;16.10;99.90;;;;;;4986517;28;20054;-73
2021/09/03 08:08:40;;;;;;;13.73;4.97;;;16.00;99.90;;;;;;4983256;28;20082;-74
2021/09/03 08:11:06;;;;;;;19.98;4.05;;;16.10;99.90;;;;;;4984534;28;20043;-73
2021/09/03 08:13:32;;;;;;;20.58;3.85;;;16.20;99.90;;;;;;4986246;28;20105;-74
2021/09/03 08:15:57;;;;;;;14.38;4.30;;;16.20;99.90;;;;;;4986061;28;20054;-71
2021/09/03 08:18:23;;;;;;;11.60;4.45;;;16.20;99.90;;;;;;4968252;28;20058;-73
2021/09/03 08:20:49;;;;;;;13.40;5.68;;;16.30;99.90;;;;;;4983535;28;20038;-74
2021/09/03 08:23:14;;;;;;;12.25;4.60;;;16.30;99.90;;;;;;4968669;28;20102;-73
2021/09/03 08:25:40;;;;;;;12.93;4.20;;;16.30;99.90;;;;;;4985901;28;20035;-75
2021/09/03 08:28:06;;;;;;;10.05;4.45;;;16.30;99.90;;;;;;4979897;28;20051;-75
2021/09/03 08:30:34;;;;;;;12.13;3.78;;;16.30;99.90;;;;;;4968173;28;20031;-75
2021/09/03 08:33:00;;;;;;;15.50;4.25;;;16.30;99.90;;;;;;4975450;28;20039;-75
2021/09/03 08:35:26;;;;;;;10.40;4.05;;;16.40;99.90;;;;;;4965466;28;20066;-74
2021/09/03 08:37:52;;;;;;;14.65;3.85;;;16.30;99.90;;;;;;4972460;28;20035;-74
2021/09/03 08:40:17;;;;;;;12.38;4.47;;;16.40;99.90;;;;;;4980199;28;20058;-74
2021/09/03 08:42:43;;;;;;;13.35;4.78;;;16.40;99.90;;;;;;4958828;29;20539;-75
2021/09/03 08:45:11;;;;;;;23.00;4.43;;;16.40;99.90;;;;;;4966896;29;20031;-72
2021/09/03 08:47:42;;;;;;;13.35;4.32;;;16.40;99.90;;;;;;4969817;28;20038;-75
2021/09/03 08:50:10;;;;;;;8.15;3.85;;;16.40;99.90;;;;;;4984094;28;20030;-75
2021/09/03 08:52:38;;;;;;;19.15;4.80;;;16.40;99.90;;;;;;4967994;28;20539;-74
2021/09/03 08:55:04;;;;;;;12.40;4.78;;;16.40;99.90;;;;;;4984574;28;20082;-75
2021/09/03 08:57:30;;;;;;;10.77;4.72;;;16.40;99.90;;;;;;4976275;28;20027;-74
2021/09/03 09:00:00;;;;;;;10.27;4.65;;;16.40;99.90;;;;;;4966474;29;20182;-75
2021/09/03 09:02:26;;;;;;;9.48;4.53;;;16.40;99.90;;;;;;4975874;28;20031;-76
2021/09/03 09:04:53;;;;;;;14.48;5.10;;;16.40;99.90;;;;;;4979147;28;20383;-77
2021/09/03 09:07:19;;;;;;;17.50;4.68;;;16.40;99.90;;;;;;4966151;29;20364;-75
2021/09/03 09:09:49;;;;;;;8.10;4.13;;;16.50;99.90;;;;;;4965739;28;20070;-74
2021/09/03 09:12:18;;;;;;;6.78;3.88;;;16.40;99.90;;;;;;4968410;28;20047;-73
2021/09/03 09:15:04;;;;;;;10.65;4.13;;;16.40;99.90;;;;;;4980975;28;20038;-75
2021/09/03 09:17:36;;;;;;;11.20;4.78;;;16.40;99.90;;;;;;4965822;29;20039;-76
2021/09/03 09:20:06;;;;;;;9.20;4.32;;;16.40;99.90;;;;;;4966881;28;20038;-73
2021/09/03 09:22:59;;;;;;;18.15;4.63;;;16.40;99.90;;;;;;4985552;28;20027;-74
2021/09/03 09:25:25;;;;;;;10.90;5.07;;;16.50;99.90;;;;;;4963574;28;20131;-73
2021/09/03 09:27:52;;;;;;;7.60;4.10;;;16.50;99.90;;;;;;4975317;28;20051;-74
2021/09/03 09:30:27;;;;;;;12.63;3.97;;;16.50;99.90;;;;;;4972928;28;20019;-74
2021/09/03 09:33:20;;;;;;;6.20;3.58;;;16.60;99.90;;;;;;4971321;28;20069;-74
2021/09/03 09:35:51;;;;;;;11.35;4.43;;;16.60;99.90;;;;;;4973108;28;20038;-72
2021/09/03 09:38:19;;;;;;;6.05;3.53;;;16.70;99.90;;;;;;4983992;28;20379;-74
2021/09/03 09:40:48;;;;;;;8.40;3.85;;;16.70;99.90;;;;;;4984648;28;20059;-75
2021/09/03 09:43:29;;;;;;;10.82;4.90;;;16.80;99.90;;;;;;4984464;28;20448;-76
2021/09/03 09:46:10;;;;;;;20.25;4.57;;;16.80;99.90;;;;;;4975348;28;20041;-77
2021/09/03 09:48:51;;;;;;;10.05;4.53;;;16.90;99.90;;;;;;4988663;28;20043;-75
2021/09/03 09:51:41;;;;;;;16.77;5.80;;;17.00;99.90;;;;;;4973465;28;20081;-74
2021/09/03 09:54:09;;;;;;;11.35;4.38;;;17.10;99.90;;;;;;4968132;28;20391;-76
2021/09/03 09:56:40;;;;;;;27.08;5.40;;;17.10;99.90;;;;;;4978836;28;20030;-75
2021/09/03 09:59:09;;;;;;;15.10;5.45;;;17.20;99.90;;;;;;4988477;28;20038;-74
2021/09/03 10:01:37;;;;;;;16.23;6.00;;;17.20;99.90;;;;;;4971489;28;20034;-74
2021/09/03 10:04:09;;;;;;;14.27;5.05;;;17.30;99.90;;;;;;4968037;29;20035;-74
2021/09/03 10:06:36;;;;;;;13.13;4.82;;;17.40;99.90;;;;;;4968833;29;20062;-76
2021/09/03 10:09:08;;;;;;;11.10;4.38;;;17.50;99.90;;;;;;4955767;28;20427;-74
2021/09/03 10:11:38;;;;;;;10.43;4.57;;;17.60;99.90;;;;;;4982253;28;20039;-75
2021/09/03 10:14:07;;;;;;;8.05;3.58;;;17.60;99.90;;;;;;4987352;28;20031;-75
2021/09/03 10:16:34;;;;;;;9.63;4.40;;;17.80;99.90;;;;;;4988457;28;20031;-74
2021/09/03 10:19:03;;;;;;;8.98;4.20;;;17.80;99.90;;;;;;4987962;28;20038;-75
2021/09/03 10:21:30;;;;;;;16.42;4.57;;;17.90;99.90;;;;;;4988473;28;20054;-75
2021/09/03 10:23:57;;;;;;;6.82;3.50;;;18.20;99.90;;;;;;4988313;28;20022;-73
2021/09/03 10:26:51;;;;;;;7.97;3.72;;;18.30;99.90;;;;;;4988064;28;20557;-76
2021/09/03 10:29:26;;;;;;;9.65;3.58;;;18.30;99.90;;;;;;4968742;28;20042;-75
2021/09/03 10:32:08;;;;;;;10.88;3.17;;;18.60;99.90;;;;;;4987351;28;20043;-74
2021/09/03 10:34:43;;;;;;;15.05;4.35;;;18.90;99.90;;;;;;4987814;28;20031;-76
2021/09/03 10:37:15;;;;;;;9.25;3.70;;;19.10;99.90;;;;;;4968920;29;20479;-75
2021/09/03 10:39:49;;;;;;;12.30;3.25;;;19.30;99.90;;;;;;4972270;28;20041;-74
2021/09/03 10:42:33;;;;;;;6.30;2.97;;;19.50;99.90;;;;;;4987874;28;20031;-72
2021/09/03 10:45:03;;;;;;;9.93;3.33;;;19.60;99.90;;;;;;4986844;28;20405;-72
2021/09/03 10:47:35;;;;;;;9.48;4.15;;;19.60;99.90;;;;;;4987780;28;20074;-73
2021/09/03 10:50:28;;;;;;;13.80;3.28;;;19.60;99.90;;;;;;4987959;28;20113;-73
2021/09/03 10:53:04;;;;;;;9.30;3.63;;;19.90;99.90;;;;;;4987948;28;20046;-73
2021/09/03 10:56:01;;;;;;;14.10;3.72;;;19.90;99.90;;;;;;4987674;28;20030;-74
2021/09/03 10:58:43;;;;;;;7.80;3.08;;;19.80;99.90;;;;;;4967579;28;20039;-73
2021/09/03 11:01:15;;;;;;;9.02;3.13;;;19.80;99.90;;;;;;4968332;29;20365;-75
2021/09/03 11:03:49;;;;;;;6.80;3.28;;;20.00;99.90;;;;;;4967965;28;20087;-72
2021/09/03 11:06:25;;;;;;;9.25;3.20;;;20.10;99.90;;;;;;4987269;28;20046;-71
2021/09/03 11:08:53;;;;;;;8.25;3.30;;;20.10;99.90;;;;;;4987148;28;20498;-75
2021/09/03 11:11:31;;;;;;;10.07;4.07;;;20.00;99.90;;;;;;4987022;28;20038;-74
2021/09/03 11:14:09;;;;;;;7.55;3.50;;;20.00;99.90;;;;;;4987442;28;20446;-73
2021/09/03 11:16:43;;;;;;;22.17;4.55;;;20.10;99.90;;;;;;4969676;28;20360;-76
2021/09/03 11:19:11;;;;;;;6.72;3.13;;;20.30;99.90;;;;;;4986190;28;20026;-75
2021/09/03 11:21:39;;;;;;;15.02;3.80;;;20.40;99.90;;;;;;4986996;28;20039;-72
2021/09/03 11:24:07;;;;;;;7.30;3.53;;;20.60;99.90;;;;;;4987074;28;20494;-73
2021/09/03 11:26:35;;;;;;;7.25;3.50;;;20.70;99.90;;;;;;4987113;28;20546;-72
2021/09/03 11:29:04;;;;;;;7.05;3.00;;;20.80;99.90;;;;;;4987361;28;20046;-73
2021/09/03 11:31:31;;;;;;;7.40;3.72;;;20.80;99.90;;;;;;4987050;28;20896;-73
2021/09/03 11:33:59;;;;;;;12.20;3.45;;;21.00;99.90;;;;;;4987219;28;20368;-73
2021/09/03 11:36:25;;;;;;;16.45;4.03;;;21.20;99.90;;;;;;4986440;28;20035;-73
2021/09/03 11:38:55;;;;;;;6.47;3.35;;;21.30;99.90;;;;;;4986759;28;20082;-74
2021/09/03 11:41:21;;;;;;;8.45;3.88;;;21.40;99.90;;;;;;4986752;28;20027;-72
2021/09/03 11:43:48;;;;;;;11.20;3.40;;;21.50;99.90;;;;;;4984859;28;20031;-72
2021/09/03 11:46:19;;;;;;;7.82;3.10;;;21.60;99.90;;;;;;4986260;28;20058;-72
2021/09/03 11:48:46;;;;;;;7.53;3.40;;;21.70;99.90;;;;;;4981913;28;20054;-72
2021/09/03 11:51:22;;;;;;;9.45;4.20;;;21.80;99.90;;;;;;4979347;28;20070;-74
2021/09/03 11:53:49;;;;;;;12.13;3.80;;;21.70;99.90;;;;;;4977278;28;20054;-74
2021/09/03 11:56:16;;;;;;;10.15;4.13;;;21.70;99.90;;;;;;4967009;28;20035;-72
2021/09/03 11:58:42;;;;;;;10.57;3.67;;;21.60;99.90;;;;;;4966282;29;20023;-75
2021/09/03 12:01:10;;;;;;;9.30;3.63;;;21.70;99.90;;;;;;4967006;29;20023;-72
2021/09/03 12:03:47;;;;;;;8.95;3.72;;;21.70;99.90;;;;;;4968760;28;20084;-74
2021/09/03 12:06:15;;;;;;;7.45;3.53;;;21.90;99.90;;;;;;4972990;28;20045;-72
2021/09/03 12:08:42;;;;;;;13.27;4.55;;;21.90;99.90;;;;;;4972846;28;20035;-74
2021/09/03 12:11:23;;;;;;;14.35;3.65;;;21.90;99.90;;;;;;4974064;28;20059;-72
2021/09/03 12:13:57;;;;;;;8.27;3.97;;;22.10;99.90;;;;;;4972369;28;20106;-74
2021/09/03 12:16:30;;;;;;;6.07;2.97;;;22.10;99.90;;;;;;4975225;28;20038;-73
2021/09/03 12:19:03;;;;;;;10.75;3.67;;;22.30;99.90;;;;;;4965146;29;20027;-73
2021/09/03 12:21:37;;;;;;;7.32;3.10;;;22.40;99.90;;;;;;4969495;28;20027;-72
2021/09/03 12:24:10;;;;;;;10.57;3.85;;;22.50;99.90;;;;;;4978878;28;20043;-72
2021/09/03 12:26:51;;;;;;;8.27;3.60;;;22.50;99.90;;;;;;4977870;28;20050;-73
2021/09/03 12:29:23;;;;;;;11.35;3.83;;;22.70;99.90;;;;;;4964158;29;20107;-75
2021/09/03 12:31:55;;;;;;;8.57;3.45;;;22.80;99.90;;;;;;4965940;29;20065;-74
2021/09/03 12:34:31;;;;;;;8.80;3.30;;;23.00;99.90;;;;;;4965551;29;20061;-73
2021/09/03 12:37:02;;;;;;;9.13;3.63;;;23.00;99.90;;;;;;4969032;28;20118;-73
2021/09/03 12:39:33;;;;;;;14.07;4.38;;;23.20;99.90;;;;;;4984850;28;20055;-73
2021/09/03 12:42:03;;;;;;;7.90;3.90;;;23.40;99.90;;;;;;4984185;28;20102;-74
2021/09/03 12:44:32;;;;;;;9.57;4.35;;;23.50;99.90;;;;;;4967473;28;20470;-73
2021/09/03 12:46:58;;;;;;;10.52;3.88;;;23.60;99.90;;;;;;4960253;29;20043;-74
2021/09/03 12:49:28;;;;;;;8.65;4.43;;;23.90;99.90;;;;;;4971506;28;20789;-73
2021/09/03 12:52:02;;;;;;;10.95;4.05;;;24.10;99.90;;;;;;4964431;29;20027;-74
2021/09/03 12:54:29;;;;;;;8.82;4.72;;;24.10;99.90;;;;;;4959329;29;20091;-74
2021/09/03 12:56:55;;;;;;;18.23;5.32;;;24.10;99.90;;;;;;4973933;28;20054;-74
2021/09/03 12:59:22;;;;;;;15.82;4.95;;;24.20;99.90;;;;;;4961233;28;20034;-78
2021/09/03 13:01:48;;;;;;;12.75;5.00;;;24.40;99.90;;;;;;4984538;28;20471;-72
2021/09/03 13:04:16;;;;;;;14.07;5.40;;;24.50;99.90;;;;;;4962012;28;20038;-73
2021/09/03 13:06:45;;;;;;;16.02;5.45;;;24.60;99.90;;;;;;4985494;28;20038;-73
2021/09/03 13:09:11;;;;;;;12.68;4.80;;;24.50;99.90;;;;;;4963558;29;20126;-72
2021/09/03 13:11:37;;;;;;;10.43;4.63;;;24.40;99.90;;;;;;4970899;28;20098;-73
2021/09/03 13:14:06;;;;;;;18.95;5.30;;;24.60;99.90;;;;;;4984936;28;20042;-73
2021/09/03 13:16:38;;;;;;;18.27;5.43;;;24.50;99.90;;;;;;4985296;28;20098;-74
2021/09/03 13:19:10;;;;;;;12.05;5.38;;;24.30;99.90;;;;;;4980041;28;20062;-74
2021/09/03 13:21:36;;;;;;;13.15;5.55;;;24.20;99.90;;;;;;4975816;28;20035;-75
2021/09/03 13:24:05;;;;;;;10.68;5.10;;;24.20;99.90;;;;;;4960353;28;20032;-75
2021/09/03 13:26:32;;;;;;;12.85;5.45;;;24.50;99.90;;;;;;4978207;28;20058;-75
2021/09/03 13:28:58;;;;;;;11.18;5.10;;;24.60;99.90;;;;;;4970785;28;20039;-75
2021/09/03 13:31:24;;;;;;;17.17;5.20;;;24.60;99.90;;;;;;4983191;28;20022;-71
2021/09/03 13:33:55;;;;;;;21.58;5.80;;;24.60;99.90;;;;;;4980467;28;21172;-76
2021/09/03 13:36:22;;;;;;;11.10;4.95;;;24.40;99.90;;;;;;4981743;28;20062;-74
2021/09/03 13:38:51;;;;;;;9.48;4.72;;;24.00;99.90;;;;;;4974446;28;20035;-74
2021/09/03 13:41:18;;;;;;;11.85;4.70;;;23.70;99.90;;;;;;4984485;28;20038;-74
2021/09/03 13:43:44;;;;;;;9.48;5.13;;;23.60;99.90;;;;;;4962096;28;20034;-74
2021/09/03 13:46:16;;;;;;;8.52;4.60;;;23.80;99.90;;;;;;4971627;28;20065;-78
2021/09/03 13:48:43;;;;;;;11.50;4.63;;;24.10;99.90;;;;;;4962295;28;20073;-74
2021/09/03 13:51:11;;;;;;;14.93;4.97;;;24.30;99.90;;;;;;4967592;28;20085;-74
2021/09/03 13:53:37;;;;;;;12.95;4.82;;;24.50;99.90;;;;;;4970995;28;20046;-75
2021/09/03 13:56:03;;;;;;;12.30;5.05;;;24.70;99.90;;;;;;4973686;28;20055;-72
2021/09/03 13:58:29;;;;;;;10.18;4.78;;;24.80;99.90;;;;;;4968069;28;20035;-74
2021/09/03 14:00:56;;;;;;;10.88;4.68;;;25.00;99.90;;;;;;4984696;28;20061;-75
2021/09/03 14:03:23;;;;;;;9.38;3.88;;;25.50;99.90;;;;;;4957825;29;20046;-74
2021/09/03 14:05:48;;;;;;;12.15;4.88;;;25.80;99.90;;;;;;4975253;28;20058;-73
2021/09/03 14:08:14;;;;;;;7.03;4.05;;;26.10;99.90;;;;;;4987058;28;20050;-76
2021/09/03 14:10:40;;;;;;;10.55;4.72;;;26.20;99.90;;;;;;4966858;29;20050;-74
2021/09/03 14:13:05;;;;;;;9.38;4.22;;;26.20;99.90;;;;;;4960814;29;20039;-74
2021/09/03 14:15:32;;;;;;;14.70;4.97;;;26.20;99.90;;;;;;4962085;29;20039;-75
2021/09/03 14:17:58;;;;;;;10.68;4.55;;;26.30;99.90;;;;;;4954835;29;20026;-73
2021/09/03 14:20:24;;;;;;;9.93;4.40;;;26.40;99.90;;;;;;4949718;29;20059;-74
2021/09/03 14:22:53;;;;;;;13.13;4.65;;;26.40;99.90;;;;;;4948931;29;20032;-75
2021/09/03 14:25:20;;;;;;;16.17;4.82;;;26.40;99.90;;;;;;4947724;29;20043;-74
2021/09/03 14:27:46;;;;;;;12.60;4.20;;;26.50;99.90;;;;;;4948122;29;20158;-75
2021/09/03 14:30:13;;;;;;;9.57;4.10;;;26.80;99.90;;;;;;4949003;29;20024;-75
2021/09/03 14:32:40;;;;;;;14.48;4.10;;;27.10;99.90;;;;;;4947357;29;20027;-76
2021/09/03 14:35:07;;;;;;;9.60;4.57;;;27.30;99.90;;;;;;4949179;29;20034;-72
2021/09/03 14:37:34;;;;;;;13.85;4.78;;;27.30;99.90;;;;;;4947064;29;20031;-75
2021/09/03 14:40:01;;;;;;;11.65;5.18;;;27.10;99.90;;;;;;4948110;29;20079;-74
2021/09/03 14:42:27;;;;;;;13.45;5.10;;;27.20;99.90;;;;;;4946763;29;20031;-73
2021/09/03 14:44:52;;;;;;;12.48;5.68;;;27.20;99.90;;;;;;4948332;29;20035;-72
2021/09/03 14:47:18;;;;;;;7.72;4.35;;;27.30;99.90;;;;;;4946402;29;20043;-75
2021/09/03 14:49:44;;;;;;;19.77;4.20;;;27.30;99.90;;;;;;4947677;29;20051;-74
2021/09/03 14:52:10;;;;;;;8.95;4.60;;;27.30;99.90;;;;;;4947115;29;20031;-75
2021/09/03 14:54:38;;;;;;;9.77;3.80;;;27.30;99.90;;;;;;4930009;29;20092;-73
2021/09/03 14:57:05;;;;;;;8.55;3.88;;;27.30;99.90;;;;;;4928705;29;20036;-75
2021/09/03 14:59:32;;;;;;;9.32;3.83;;;27.30;99.90;;;;;;4928834;29;20040;-74
2021/09/03 15:01:58;;;;;;;8.20;3.60;;;27.50;99.90;;;;;;4933229;29;20120;-72
2021/09/03 15:04:23;;;;;;;13.55;4.60;;;27.90;99.90;;;;;;4947348;29;20028;-72
2021/09/03 15:06:49;;;;;;;8.20;3.88;;;28.10;99.90;;;;;;4947171;29;20047;-72
2021/09/03 15:09:15;;;;;;;10.32;3.97;;;28.10;99.90;;;;;;4948069;29;20064;-72
2021/09/03 15:11:42;;;;;;;8.75;3.88;;;28.20;99.90;;;;;;4973830;28;20117;-74
2021/09/03 15:14:09;;;;;;;11.20;3.55;;;28.30;99.90;;;;;;4967845;28;20031;-72
2021/09/03 15:16:37;;;;;;;6.10;3.38;;;28.40;99.90;;;;;;4985743;28;20374;-73
2021/09/03 15:19:03;;;;;;;4.18;2.63;;;28.40;99.90;;;;;;4984143;28;20046;-74
2021/09/03 15:21:28;;;;;;;9.57;3.38;;;28.10;99.90;;;;;;4985338;28;20031;-76
2021/09/03 15:23:54;;;;;;;11.38;4.05;;;27.00;99.90;;;;;;4986847;28;20031;-74
2021/09/03 15:26:20;;;;;;;5.88;2.70;;;25.90;99.90;;;;;;4986349;28;20042;-73
2021/09/03 15:28:45;;;;;;;16.05;4.22;;;25.20;99.90;;;;;;4984675;28;20038;-73
2021/09/03 15:31:11;;;;;;;8.30;3.15;;;24.60;99.90;;;;;;4985183;28;20035;-74
2021/09/03 15:33:37;;;;;;;8.52;3.58;;;23.90;99.90;;;;;;4986583;28;20038;-70
2021/09/03 15:36:03;;;;;;;8.95;3.60;;;23.20;99.90;;;;;;4986211;28;20035;-73
2021/09/03 15:38:29;;;;;;;8.05;3.15;;;22.50;99.90;;;;;;4984950;28;20050;-70
2021/09/03 15:40:55;;;;;;;7.68;3.58;;;22.30;99.90;;;;;;4986410;28;20376;-75
2021/09/03 15:43:20;;;;;;;6.93;3.55;;;22.00;99.90;;;;;;4985491;28;20038;-71
2021/09/03 15:45:47;;;;;;;6.88;3.40;;;21.60;99.90;;;;;;4986373;28;20027;-72
2021/09/03 15:48:13;;;;;;;6.88;3.50;;;21.70;99.90;;;;;;4984630;28;20042;-73
2021/09/03 15:50:41;;;;;;;8.18;3.33;;;21.70;99.90;;;;;;4985755;28;20037;-72
2021/09/03 15:53:08;;;;;;;6.88;3.25;;;21.60;99.90;;;;;;4986237;28;20019;-72
2021/09/03 15:55:37;;;;;;;11.95;4.00;;;21.30;99.90;;;;;;4985885;28;20055;-73
2021/09/03 15:58:06;;;;;;;9.98;3.45;;;21.20;99.90;;;;;;4985914;28;20086;-73
2021/09/03 16:00:34;;;;;;;10.90;3.88;;;21.10;99.90;;;;;;4986314;28;20030;-74
2021/09/03 16:03:00;;;;;;;11.95;3.33;;;21.00;99.90;;;;;;4984830;28;20037;-73
2021/09/03 16:05:26;;;;;;;6.75;2.90;;;20.90;99.90;;;;;;4977053;28;20525;-72
2021/09/03 16:07:51;;;;;;;6.57;3.20;;;20.80;99.90;;;;;;4978631;28;20070;-73
2021/09/03 16:10:17;;;;;;;16.40;3.60;;;20.70;99.90;;;;;;4964308;29;20023;-72
2021/09/03 16:12:42;;;;;;;9.18;3.03;;;20.60;99.90;;;;;;4948618;29;20027;-71
2021/09/03 16:15:09;;;;;;;8.05;3.10;;;20.40;99.90;;;;;;4972780;28;20235;-73
2021/09/03 16:17:36;;;;;;;7.75;3.88;;;20.20;99.90;;;;;;4984704;28;20053;-73
2021/09/03 16:20:04;;;;;;;15.80;3.45;;;20.00;99.90;;;;;;4985160;28;20090;-70
2021/09/03 16:22:30;;;;;;;6.35;3.40;;;20.00;99.90;;;;;;4985030;28;20066;-71
2021/09/03 16:24:56;;;;;;;10.75;2.70;;;19.80;99.90;;;;;;4985100;28;20081;-74
2021/09/03 16:27:22;;;;;;;6.72;3.13;;;19.60;99.90;;;;;;4985615;28;20039;-73
2021/09/03 16:29:49;;;;;;;7.45;3.47;;;19.40;99.90;;;;;;4985305;28;20027;-72
2021/09/03 16:32:15;;;;;;;11.60;3.38;;;19.30;99.90;;;;;;4984841;28;20033;-74
2021/09/03 16:34:41;;;;;;;11.25;3.58;;;19.30;99.90;;;;;;4984884;28;20117;-74
2021/09/03 16:37:07;;;;;;;6.22;3.00;;;19.30;99.90;;;;;;4985410;28;20367;-74
2021/09/03 16:39:32;;;;;;;7.63;3.45;;;19.20;99.90;;;;;;4985105;28;20031;-73
2021/09/03 16:41:58;;;;;;;7.82;3.17;;;19.10;99.90;;;;;;4984905;28;20107;-74
2021/09/03 16:44:24;;;;;;;7.20;3.67;;;19.00;99.90;;;;;;4984051;28;20042;-74
2021/09/03 16:46:51;;;;;;;6.50;2.65;;;18.90;99.90;;;;;;4985488;28;20070;-72
2021/09/03 16:49:17;;;;;;;12.68;3.55;;;18.90;99.90;;;;;;4985497;28;20475;-72
2021/09/03 16:51:43;;;;;;;9.73;3.53;;;18.80;99.90;;;;;;4984961;28;20026;-73
2021/09/03 16:54:11;;;;;;;6.30;3.55;;;18.70;99.90;;;;;;4985245;28;20030;-74
2021/09/03 16:56:37;;;;;;;10.05;4.55;;;18.50;99.90;;;;;;4981971;28;20085;-73
2021/09/03 16:59:06;;;;;;;9.70;4.22;;;18.40;99.90;;;;;;4983319;28;20050;-75
2021/09/03 17:01:31;;;;;;;10.05;3.83;;;18.30;99.90;;;;;;4985057;28;20047;-73
2021/09/03 17:03:57;;;;;;;17.70;3.50;;;18.20;99.90;;;;;;4972632;28;20031;-73
2021/09/03 17:06:23;;;;;;;9.85;4.18;;;18.20;99.90;;;;;;4984299;28;20073;-73
2021/09/03 17:08:48;;;;;;;9.63;4.18;;;18.10;99.90;;;;;;4984788;28;20046;-73
2021/09/03 17:11:14;;;;;;;15.88;3.92;;;18.20;99.90;;;;;;4984653;28;20102;-74
2021/09/03 17:13:40;;;;;;;9.40;4.35;;;18.30;99.90;;;;;;4984437;28;20026;-76
2021/09/03 17:16:07;;;;;;;9.23;4.13;;;18.30;99.90;;;;;;4984935;28;20090;-74
2021/09/03 17:18:33;;;;;;;12.25;4.43;;;18.20;99.90;;;;;;4984146;28;20034;-74
2021/09/03 17:20:59;;;;;;;8.32;4.68;;;18.30;99.90;;;;;;4984717;28;20030;-74
2021/09/03 17:23:24;;;;;;;14.00;4.20;;;18.20;99.90;;;;;;4984594;28;20042;-76
2021/09/03 17:25:50;;;;;;;8.88;4.03;;;18.10;99.90;;;;;;4984661;28;20467;-74
2021/09/03 17:28:15;;;;;;;12.50;4.85;;;17.90;99.90;;;;;;4983111;28;20035;-74
2021/09/03 17:30:41;;;;;;;9.15;4.70;;;17.80;99.90;;;;;;4969268;28;20058;-74
2021/09/03 17:33:07;;;;;;;14.88;5.53;;;17.70;99.90;;;;;;4984452;28;20046;-74
2021/09/03 17:35:33;;;;;;;15.35;5.18;;;17.70;99.90;;;;;;4984530;28;20078;-74
2021/09/03 17:37:59;;;;;;;13.45;4.78;;;17.70;99.90;;;;;;4984708;28;20038;-73
2021/09/03 17:40:25;;;;;;;10.70;4.88;;;17.60;99.90;;;;;;4982805;28;20098;-75
2021/09/03 17:42:51;;;;;;;18.65;5.47;;;17.60;99.90;;;;;;4964347;28;20039;-75
2021/09/03 17:45:17;;;;;;;14.32;4.43;;;17.50;99.90;;;;;;4972455;28;20028;-74
2021/09/03 17:47:43;;;;;;;8.80;4.25;;;17.40;99.90;;;;;;4972095;28;20107;-75
2021/09/03 17:50:10;;;;;;;8.25;3.90;;;17.40;99.90;;;;;;4963288;28;20023;-75
2021/09/03 17:52:37;;;;;;;8.52;3.67;;;17.30;99.90;;;;;;4964343;28;20031;-74
2021/09/03 17:55:04;;;;;;;8.50;3.97;;;17.20;99.90;;;;;;4952413;29;20046;-73
2021/09/03 17:57:30;;;;;;;7.22;3.38;;;17.10;99.90;;;;;;4968847;28;20035;-73
2021/09/03 17:59:57;;;;;;;14.75;4.40;;;17.10;99.90;;;;;;4972238;28;20510;-73
2021/09/03 18:02:22;;;;;;;13.20;4.07;;;17.10;99.90;;;;;;4966388;28;20038;-73
2021/09/03 18:04:48;;;;;;;12.40;3.95;;;17.10;99.90;;;;;;4947723;29;20070;-72
2021/09/03 18:07:14;;;;;;;8.30;3.75;;;17.10;99.90;;;;;;4966150;28;20157;-73
2021/09/03 18:09:41;;;;;;;11.25;3.92;;;17.10;99.90;;;;;;4966483;28;20832;-74
2021/09/03 18:34:02;;;;;;;9.60;4.40;;;17.00;99.90;;;;;;4327316;23;20043;-75
2021/09/03 18:36:28;;;;;;;8.15;4.35;;;17.10;99.90;;;;;;4917618;29;20032;-76
2021/09/03 18:38:59;;;;;;;11.88;4.40;;;17.10;99.90;;;;;;4928124;29;20062;-76
2021/09/03 18:41:25;;;;;;;18.50;4.45;;;17.00;99.90;;;;;;4949090;29;20039;-75
2021/09/03 18:43:51;;;;;;;12.77;3.90;;;17.00;99.90;;;;;;4942008;29;20060;-77
2021/09/03 18:46:16;;;;;;;9.93;4.00;;;16.90;99.90;;;;;;4948596;29;20027;-75
2021/09/03 18:48:42;;;;;;;8.10;3.65;;;16.90;99.90;;;;;;4929844;29;20028;-77
2021/09/03 18:51:08;;;;;;;10.30;3.95;;;16.90;99.90;;;;;;4930070;29;20063;-75
2021/09/03 18:53:33;;;;;;;15.65;3.85;;;16.80;99.90;;;;;;4931922;29;20035;-76
2021/09/03 18:55:59;;;;;;;9.00;3.60;;;16.80;99.90;;;;;;4931774;29;20034;-75
2021/09/03 18:58:26;;;;;;;11.27;4.78;;;16.70;99.90;;;;;;4948900;29;20298;-76
2021/09/03 19:00:53;;;;;;;15.48;4.22;;;16.70;99.90;;;;;;4928691;29;20039;-76
2021/09/03 19:03:19;;;;;;;11.65;4.45;;;16.70;99.90;;;;;;4938827;29;20473;-78
2021/09/03 19:05:45;;;;;;;13.98;4.70;;;16.70;99.90;;;;;;4946021;29;20480;-76
2021/09/03 19:08:11;;;;;;;12.10;3.72;;;16.80;99.90;;;;;;4927652;29;20051;-77
2021/09/03 19:10:37;;;;;;;14.10;4.55;;;16.80;99.90;;;;;;4945785;29;20046;-77
2021/09/03 19:13:03;;;;;;;9.80;4.00;;;16.80;99.90;;;;;;4940708;29;20095;-75
2021/09/03 19:15:30;;;;;;;7.43;3.60;;;16.80;99.90;;;;;;4948088;29;20037;-76
2021/09/03 19:17:58;;;;;;;19.98;4.13;;;16.80;99.90;;;;;;4948792;29;20031;-76
2021/09/03 19:20:24;;;;;;;5.97;3.13;;;16.70;99.90;;;;;;4948010;29;20488;-74
2021/09/03 19:22:50;;;;;;;13.35;4.10;;;16.70;99.90;;;;;;4948771;29;20052;-78
2021/09/03 19:25:16;;;;;;;6.40;2.97;;;16.70;99.90;;;;;;4929051;29;20042;-75
2021/09/03 19:27:42;;;;;;;7.00;3.10;;;16.70;99.90;;;;;;4929587;29;20071;-77
2021/09/03 19:30:08;;;;;;;9.20;3.35;;;16.60;99.90;;;;;;4915155;29;20031;-74
2021/09/03 19:32:34;;;;;;;8.95;2.85;;;16.60;99.90;;;;;;4947487;29;20047;-75
2021/09/03 19:34:59;;;;;;;10.98;2.95;;;16.50;99.90;;;;;;4930585;29;20516;-74
2021/09/03 19:37:25;;;;;;;4.75;2.53;;;16.50;99.90;;;;;;4948433;29;20020;-77
2021/09/03 19:39:51;;;;;;;10.50;2.50;;;16.50;99.90;;;;;;4931486;29;20038;-76
2021/09/03 19:42:17;;;;;;;12.05;3.33;;;16.50;99.90;;;;;;4948290;29;20091;-76
2021/09/03 19:44:43;;;;;;;7.25;3.00;;;16.50;99.90;;;;;;4931268;29;20027;-75
2021/09/03 19:47:09;;;;;;;18.83;2.55;;;16.50;99.90;;;;;;4947477;29;20047;-75